createdAt,value
2019-05-28T00:01:16.226Z,18.72
2019-05-28T00:03:48.586Z,18.71
2019-05-28T00:06:20.963Z,18.70
2019-05-28T00:08:53.225Z,18.71
2019-05-28T00:11:25.501Z,18.74
2019-05-28T00:13:57.795Z,18.72
2019-05-28T00:16:30.063Z,18.74
2019-05-28T00:19:02.522Z,18.74
2019-05-28T00:21:34.763Z,18.72
2019-05-28T00:24:07.108Z,18.62
2019-05-28T00:26:39.348Z,18.62
2019-05-28T00:29:11.521Z,18.55
2019-05-28T00:31:43.692Z,18.49
2019-05-28T00:34:15.961Z,18.51
2019-05-28T00:36:48.193Z,18.54
2019-05-28T00:39:20.312Z,18.45
2019-05-28T00:41:52.525Z,18.45
2019-05-28T00:44:25.252Z,18.45
2019-05-28T00:46:57.490Z,18.42
2019-05-28T00:49:29.667Z,18.44
2019-05-28T00:52:02.026Z,18.31
2019-05-28T00:54:34.514Z,18.28
2019-05-28T00:57:07.060Z,18.37
2019-05-28T00:59:39.683Z,18.40
2019-05-28T01:02:11.974Z,18.42
2019-05-28T01:04:44.376Z,18.43
2019-05-28T01:07:16.570Z,18.37
2019-05-28T01:09:48.816Z,18.30
2019-05-28T01:12:20.990Z,18.25
2019-05-28T01:14:53.194Z,18.21
2019-05-28T01:17:25.695Z,18.25
2019-05-28T01:19:57.676Z,18.13
2019-05-28T01:22:30.474Z,18.22
2019-05-28T01:25:02.827Z,18.28
2019-05-28T01:27:35.150Z,18.26
2019-05-28T01:30:10.503Z,18.30
2019-05-28T01:32:42.974Z,18.27
2019-05-28T01:35:15.288Z,18.00
2019-05-28T01:37:47.498Z,18.17
2019-05-28T01:40:23.183Z,18.15
2019-05-28T01:42:54.713Z,18.18
2019-05-28T01:45:26.971Z,18.19
2019-05-28T01:47:59.191Z,18.15
2019-05-28T01:50:31.515Z,17.98
2019-05-28T01:53:03.883Z,17.78
2019-05-28T01:55:36.015Z,17.90
2019-05-28T01:58:08.253Z,18.08
2019-05-28T02:00:40.410Z,18.26
2019-05-28T02:03:12.722Z,18.20
2019-05-28T02:05:45.374Z,18.15
2019-05-28T02:08:17.623Z,17.91
2019-05-28T02:10:50.083Z,18.10
2019-05-28T02:13:22.446Z,18.12
2019-05-28T02:15:54.741Z,18.12
2019-05-28T02:18:26.966Z,18.23
2019-05-28T02:20:59.109Z,18.49
2019-05-28T02:23:31.301Z,18.79
2019-05-28T02:26:03.515Z,19.17
2019-05-28T02:28:35.808Z,19.18
2019-05-28T02:31:08.149Z,19.29
2019-05-28T02:33:40.529Z,19.62
2019-05-28T02:36:12.838Z,19.65
2019-05-28T02:38:44.982Z,19.91
2019-05-28T02:41:17.279Z,20.11
2019-05-28T02:43:49.512Z,20.04
2019-05-28T02:46:21.961Z,20.46
2019-05-28T02:48:54.255Z,20.66
2019-05-28T02:51:26.947Z,20.95
2019-05-28T02:54:00.102Z,21.17
2019-05-28T02:56:32.332Z,20.92
2019-05-28T02:59:04.488Z,21.05
2019-05-28T03:01:44.516Z,20.98
2019-05-28T03:04:15.451Z,20.54
2019-05-28T03:06:50.828Z,21.28
2019-05-28T03:09:25.930Z,21.38
2019-05-28T03:11:58.114Z,22.14
2019-05-28T03:14:30.386Z,21.41
2019-05-28T03:17:04.418Z,21.31
2019-05-28T03:19:38.480Z,21.50
2019-05-28T03:22:13.333Z,21.31
2019-05-28T03:24:48.522Z,21.65
2019-05-28T03:27:20.738Z,21.84
2019-05-28T03:29:53.012Z,22.49
2019-05-28T03:32:25.274Z,21.52
2019-05-28T03:34:57.541Z,22.18
2019-05-28T03:37:31.617Z,22.48
2019-05-28T03:40:06.906Z,22.27
2019-05-28T03:42:40.124Z,22.68
2019-05-28T03:45:12.722Z,22.30
2019-05-28T03:47:45.039Z,22.51
2019-05-28T03:50:17.417Z,22.85
2019-05-28T03:52:49.491Z,22.56
2019-05-28T03:55:21.910Z,23.39
2019-05-28T03:57:54.057Z,23.08
2019-05-28T04:00:26.295Z,23.55
2019-05-28T04:02:58.550Z,23.12
2019-05-28T04:05:31.232Z,22.54
2019-05-28T04:08:03.568Z,22.76
2019-05-28T04:10:36.013Z,23.47
2019-05-28T04:13:08.378Z,23.50
2019-05-28T04:15:40.853Z,23.10
2019-05-28T04:18:14.009Z,23.12
2019-05-28T04:20:47.306Z,23.27
2019-05-28T04:23:19.550Z,23.30
2019-05-28T04:25:51.877Z,23.65
2019-05-28T04:28:24.132Z,22.88
2019-05-28T04:30:56.463Z,22.80
2019-05-28T04:33:28.711Z,22.70
2019-05-28T04:36:00.875Z,22.65
2019-05-28T04:38:32.899Z,22.72
2019-05-28T04:41:05.194Z,22.61
2019-05-28T04:43:37.470Z,22.66
2019-05-28T04:46:09.985Z,22.44
2019-05-28T04:48:42.373Z,22.37
2019-05-28T04:51:14.779Z,22.76
2019-05-28T04:53:46.935Z,22.97
2019-05-28T04:56:19.079Z,22.96
2019-05-28T04:58:51.247Z,23.20
2019-05-28T05:01:23.323Z,23.24
2019-05-28T05:03:55.629Z,23.26
2019-05-28T05:06:28.147Z,23.29
2019-05-28T05:09:00.300Z,23.43
2019-05-28T05:11:32.551Z,23.25
2019-05-28T05:14:04.711Z,23.42
2019-05-28T05:16:37.197Z,23.46
2019-05-28T05:19:09.373Z,23.26
2019-05-28T05:21:41.508Z,23.47
2019-05-28T05:24:13.792Z,23.10
2019-05-28T05:26:45.971Z,23.36
2019-05-28T05:29:18.140Z,23.24
2019-05-28T05:31:50.391Z,23.26
2019-05-28T05:34:22.662Z,23.49
2019-05-28T05:36:54.920Z,23.62
2019-05-28T05:39:27.190Z,23.50
2019-05-28T05:41:59.462Z,23.71
2019-05-28T05:44:31.676Z,23.59
2019-05-28T05:47:03.854Z,23.72
2019-05-28T05:49:36.066Z,23.98
2019-05-28T05:52:08.441Z,23.96
2019-05-28T05:54:40.830Z,24.30
2019-05-28T05:57:13.103Z,24.21
2019-05-28T05:59:45.361Z,24.32
2019-05-28T06:02:17.745Z,24.53
2019-05-28T06:04:49.935Z,24.66
2019-05-28T06:07:22.160Z,24.57
2019-05-28T06:09:54.295Z,24.52
2019-05-28T06:12:26.589Z,24.63
2019-05-28T06:14:58.836Z,25.03
2019-05-28T06:17:31.072Z,24.79
2019-05-28T06:20:04.423Z,24.71
2019-05-28T06:22:36.639Z,24.79
2019-05-28T06:25:09.065Z,25.19
2019-05-28T06:27:41.534Z,25.34
2019-05-28T06:30:14.031Z,25.42
2019-05-28T06:32:46.413Z,25.21
2019-05-28T06:35:18.686Z,25.20
2019-05-28T06:37:50.962Z,25.26
2019-05-28T06:40:23.612Z,25.32
2019-05-28T06:42:55.905Z,25.50
2019-05-28T06:45:28.176Z,25.59
2019-05-28T06:48:00.370Z,25.79
2019-05-28T06:50:32.557Z,25.86
2019-05-28T06:53:04.832Z,26.27
2019-05-28T06:55:36.960Z,26.43
2019-05-28T06:58:09.341Z,26.32
2019-05-28T07:00:41.601Z,26.38
2019-05-28T07:03:13.895Z,26.52
2019-05-28T07:05:46.137Z,26.31
2019-05-28T07:08:18.117Z,26.19
2019-05-28T07:10:57.575Z,26.17
2019-05-28T07:13:24.133Z,26.42
2019-05-28T07:15:56.427Z,26.43
2019-05-28T07:18:28.716Z,26.53
2019-05-28T07:21:00.723Z,26.74
2019-05-28T07:23:33.978Z,26.68
2019-05-28T07:26:06.130Z,26.71
2019-05-28T07:28:38.356Z,26.67
2019-05-28T07:31:10.817Z,26.31
2019-05-28T07:33:43.048Z,26.68
2019-05-28T07:36:15.363Z,26.72
2019-05-28T07:38:47.588Z,26.78
2019-05-28T07:41:19.900Z,26.91
2019-05-28T07:43:52.049Z,26.75
2019-05-28T07:46:24.567Z,27.05
2019-05-28T07:48:56.815Z,27.18
2019-05-28T07:51:28.774Z,27.10
2019-05-28T07:54:00.829Z,27.01
2019-05-28T07:56:32.793Z,26.99
2019-05-28T07:59:04.782Z,26.90
2019-05-28T08:01:37.075Z,27.03
2019-05-28T08:04:09.278Z,27.25
2019-05-28T08:06:54.170Z,27.13
2019-05-28T08:09:15.146Z,26.99
2019-05-28T08:11:47.166Z,27.08
2019-05-28T08:14:19.178Z,27.26
2019-05-28T08:16:52.948Z,26.97
2019-05-28T08:19:24.973Z,27.01
2019-05-28T08:21:57.092Z,27.26
2019-05-28T08:24:29.016Z,27.43
2019-05-28T08:27:01.030Z,27.31
2019-05-28T08:29:33.397Z,27.38
2019-05-28T08:32:05.464Z,27.61
2019-05-28T08:34:37.536Z,27.80
2019-05-28T08:37:09.591Z,27.28
2019-05-28T08:39:41.592Z,27.26
2019-05-28T08:42:14.606Z,27.62
2019-05-28T08:44:46.541Z,27.66
2019-05-28T08:47:18.501Z,27.47
2019-05-28T08:49:50.387Z,27.73
2019-05-28T08:52:22.617Z,27.89
2019-05-28T08:54:54.690Z,27.82
2019-05-28T08:57:27.065Z,27.26
2019-05-28T08:59:59.202Z,27.34
2019-05-28T09:02:31.554Z,27.37
2019-05-28T09:05:24.446Z,27.27
2019-05-28T09:07:37.981Z,27.19
2019-05-28T09:10:10.466Z,27.61
2019-05-28T09:12:42.747Z,27.66
2019-05-28T09:15:14.848Z,27.52
2019-05-28T09:17:46.789Z,27.07
2019-05-28T09:20:18.848Z,27.55
2019-05-28T09:22:51.538Z,27.09
2019-05-28T09:25:23.923Z,27.18
2019-05-28T09:27:55.965Z,27.54
2019-05-28T09:30:28.008Z,27.62
2019-05-28T09:33:00.396Z,27.67
2019-05-28T09:35:44.186Z,27.73
2019-05-28T09:38:06.353Z,27.78
2019-05-28T09:40:49.867Z,27.48
2019-05-28T09:43:12.016Z,27.16
2019-05-28T09:45:43.984Z,27.38
2019-05-28T09:48:16.512Z,27.51
2019-05-28T09:50:51.854Z,27.21
2019-05-28T09:53:23.418Z,26.80
2019-05-28T09:55:55.703Z,26.88
2019-05-28T09:58:28.174Z,26.94
2019-05-28T10:01:00.561Z,26.89
2019-05-28T10:03:32.645Z,27.28
2019-05-28T10:06:16.370Z,27.41
2019-05-28T10:08:38.388Z,27.24
2019-05-28T10:11:10.313Z,27.26
2019-05-28T10:13:42.431Z,26.92
2019-05-28T10:16:14.745Z,27.01
2019-05-28T10:18:46.985Z,27.23
2019-05-28T10:21:19.606Z,27.70
2019-05-28T10:23:51.859Z,27.92
2019-05-28T10:26:24.384Z,28.02
2019-05-28T10:28:56.665Z,28.14
2019-05-28T10:31:28.639Z,28.19
2019-05-28T10:34:01.054Z,28.29
2019-05-28T10:36:36.518Z,28.32
2019-05-28T10:39:10.437Z,27.99
2019-05-28T10:41:42.543Z,27.89
2019-05-28T10:44:14.758Z,27.80
2019-05-28T10:46:46.912Z,27.97
2019-05-28T10:49:19.139Z,27.79
2019-05-28T10:51:51.246Z,27.74
2019-05-28T10:54:23.407Z,27.90
2019-05-28T10:56:55.752Z,27.71
2019-05-28T10:59:27.873Z,27.49
2019-05-28T11:02:01.644Z,27.72
2019-05-28T11:04:33.828Z,27.41
2019-05-28T11:07:06.136Z,27.75
2019-05-28T11:09:38.408Z,27.87
2019-05-28T11:12:10.805Z,28.19
2019-05-28T11:14:42.968Z,27.90
2019-05-28T11:17:15.271Z,27.73
2019-05-28T11:19:47.442Z,27.52
2019-05-28T11:22:19.690Z,27.68
2019-05-28T11:24:52.049Z,27.83
2019-05-28T11:27:24.432Z,28.07
2019-05-28T11:29:56.868Z,27.86
2019-05-28T11:32:29.190Z,28.17
2019-05-28T11:35:01.387Z,28.06
2019-05-28T11:37:33.622Z,28.06
2019-05-28T11:40:11.019Z,27.93
2019-05-28T11:42:44.814Z,28.02
2019-05-28T11:45:18.620Z,27.64
2019-05-28T11:47:51.492Z,27.48
2019-05-28T11:50:24.109Z,27.58
2019-05-28T11:52:56.318Z,27.45
2019-05-28T11:55:28.641Z,27.59
2019-05-28T11:58:00.873Z,27.59
2019-05-28T12:00:33.551Z,27.45
2019-05-28T12:03:06.231Z,27.70
2019-05-28T12:05:38.316Z,27.85
2019-05-28T12:08:10.588Z,28.04
2019-05-28T12:10:42.664Z,27.80
2019-05-28T12:13:15.012Z,27.75
2019-05-28T12:15:47.297Z,27.50
2019-05-28T12:18:19.674Z,27.66
2019-05-28T12:20:51.792Z,27.80
2019-05-28T12:23:24.003Z,27.84
2019-05-28T12:25:56.270Z,27.83
2019-05-28T12:28:37.553Z,27.76
2019-05-28T12:31:03.036Z,27.66
2019-05-28T12:33:35.408Z,27.52
2019-05-28T12:36:09.966Z,27.33
2019-05-28T12:38:42.508Z,27.38
2019-05-28T12:41:14.647Z,27.39
2019-05-28T12:43:46.965Z,27.48
2019-05-28T12:46:19.090Z,27.33
2019-05-28T12:48:51.280Z,27.60
2019-05-28T12:51:23.502Z,27.39
2019-05-28T12:53:55.763Z,27.24
2019-05-28T12:56:28.038Z,27.49
2019-05-28T12:59:00.548Z,27.38
2019-05-28T13:01:33.138Z,27.38
2019-05-28T13:04:06.021Z,27.40
2019-05-28T13:06:39.021Z,27.43
2019-05-28T13:09:11.464Z,27.50
2019-05-28T13:11:43.625Z,27.51
2019-05-28T13:14:16.276Z,27.45
2019-05-28T13:16:48.531Z,27.69
2019-05-28T13:19:20.786Z,27.78
2019-05-28T13:21:52.906Z,27.45
2019-05-28T13:24:25.145Z,27.45
2019-05-28T13:26:57.507Z,27.06
2019-05-28T13:29:29.806Z,27.14
2019-05-28T13:32:07.800Z,27.28
2019-05-28T13:34:36.049Z,27.31
2019-05-28T13:37:08.169Z,27.12
2019-05-28T13:39:40.355Z,27.15
2019-05-28T13:42:12.844Z,27.22
2019-05-28T13:44:44.922Z,26.92
2019-05-28T13:47:32.995Z,26.87
2019-05-28T13:49:51.029Z,26.91
2019-05-28T13:52:23.073Z,26.99
2019-05-28T13:54:55.362Z,27.08
2019-05-28T13:57:27.830Z,27.09
2019-05-28T14:00:00.069Z,27.41
2019-05-28T14:02:32.320Z,27.45
2019-05-28T14:05:09.892Z,27.44
2019-05-28T14:07:42.236Z,27.23
2019-05-28T14:10:15.082Z,27.31
2019-05-28T14:12:47.426Z,27.24
2019-05-28T14:15:22.381Z,27.13
2019-05-28T14:17:54.491Z,26.96
2019-05-28T14:20:26.656Z,26.82
2019-05-28T14:23:01.575Z,26.91
2019-05-28T14:25:33.878Z,26.90
2019-05-28T14:28:06.014Z,26.86
2019-05-28T14:30:38.107Z,26.70
2019-05-28T14:33:10.471Z,26.63
2019-05-28T14:35:42.580Z,26.53
2019-05-28T14:38:14.716Z,26.49
2019-05-28T14:40:46.983Z,26.49
2019-05-28T14:43:19.371Z,26.35
2019-05-28T14:45:51.870Z,26.44
2019-05-28T14:48:25.227Z,26.39
2019-05-28T14:50:57.381Z,26.33
2019-05-28T14:53:29.556Z,26.37
2019-05-28T14:56:01.365Z,26.33
2019-05-28T14:58:33.468Z,26.36
2019-05-28T15:01:05.377Z,26.35
2019-05-28T15:03:37.607Z,26.26
2019-05-28T15:06:09.787Z,26.36
2019-05-28T15:08:41.873Z,26.35
2019-05-28T15:11:13.939Z,26.36
2019-05-28T15:13:46.400Z,26.37
2019-05-28T15:16:18.859Z,26.42
2019-05-28T15:18:51.179Z,26.39
2019-05-28T15:21:23.511Z,26.32
2019-05-28T15:23:55.623Z,26.24
2019-05-28T15:26:27.773Z,26.20
2019-05-28T15:29:00.045Z,26.23
2019-05-28T15:31:32.274Z,26.13
2019-05-28T15:34:04.927Z,26.06
2019-05-28T15:36:37.174Z,26.03
2019-05-28T15:39:09.296Z,26.00
2019-05-28T15:41:43.100Z,25.97
2019-05-28T15:44:15.323Z,26.03
2019-05-28T15:46:47.490Z,26.18
2019-05-28T15:49:20.951Z,26.25
2019-05-28T15:52:06.881Z,26.14
2019-05-28T15:54:27.148Z,26.09
2019-05-28T15:56:59.247Z,26.00
2019-05-28T15:59:31.629Z,25.90
2019-05-28T16:02:04.133Z,25.91
2019-05-28T16:04:36.303Z,25.88
2019-05-28T16:07:08.461Z,25.88
2019-05-28T16:09:55.034Z,25.82
2019-05-28T16:12:14.467Z,25.83
2019-05-28T16:14:46.610Z,25.81
2019-05-28T16:17:18.673Z,25.74
2019-05-28T16:19:50.680Z,25.74
2019-05-28T16:22:23.205Z,25.68
2019-05-28T16:24:55.393Z,25.62
2019-05-28T16:27:27.450Z,25.59
2019-05-28T16:29:59.422Z,25.58
2019-05-28T16:32:31.900Z,25.48
2019-05-28T16:35:07.528Z,25.43
2019-05-28T16:37:40.515Z,25.35
2019-05-28T16:40:16.252Z,25.31
2019-05-28T16:42:48.368Z,25.26
2019-05-28T16:45:21.015Z,25.21
2019-05-28T16:47:53.232Z,25.18
2019-05-28T16:50:25.265Z,25.12
2019-05-28T16:52:57.411Z,25.04
2019-05-28T16:55:29.452Z,24.91
2019-05-28T16:58:01.483Z,24.81
2019-05-28T17:00:33.724Z,24.70
2019-05-28T17:03:06.072Z,24.62
2019-05-28T17:05:38.189Z,24.61
2019-05-28T17:08:10.543Z,24.53
2019-05-28T17:10:43.406Z,24.47
2019-05-28T17:13:16.374Z,24.44
2019-05-28T17:15:48.574Z,24.41
2019-05-28T17:18:21.024Z,24.38
2019-05-28T17:20:53.127Z,24.30
2019-05-28T17:23:25.454Z,24.28
2019-05-28T17:25:57.474Z,24.20
2019-05-28T17:28:29.649Z,24.13
2019-05-28T17:31:02.010Z,24.07
2019-05-28T17:33:34.373Z,23.99
2019-05-28T17:36:09.499Z,23.90
2019-05-28T17:38:42.749Z,23.84
2019-05-28T17:41:14.895Z,23.77
2019-05-28T17:43:47.230Z,23.73
2019-05-28T17:46:19.455Z,23.71
2019-05-28T17:48:51.690Z,23.68
2019-05-28T17:51:24.045Z,23.71
2019-05-28T17:53:56.153Z,23.72
2019-05-28T17:56:28.506Z,23.68
2019-05-28T17:59:00.442Z,23.65
2019-05-28T18:01:32.869Z,23.62
2019-05-28T18:04:05.204Z,23.52
2019-05-28T18:06:37.607Z,23.41
2019-05-28T18:09:09.776Z,23.31
2019-05-28T18:11:41.746Z,23.25
2019-05-28T18:14:13.795Z,23.16
2019-05-28T18:16:45.973Z,23.15
2019-05-28T18:19:19.122Z,23.15
2019-05-28T18:21:51.189Z,23.13
2019-05-28T18:24:23.251Z,23.04
2019-05-28T18:26:55.427Z,23.02
2019-05-28T18:29:27.455Z,23.01
2019-05-28T18:31:59.567Z,22.99
2019-05-28T18:34:31.752Z,22.92
2019-05-28T18:37:04.198Z,22.90
2019-05-28T18:39:36.170Z,22.85
2019-05-28T18:42:08.255Z,22.77
2019-05-28T18:44:40.322Z,22.71
2019-05-28T18:47:12.486Z,22.69
2019-05-28T18:49:44.834Z,22.66
2019-05-28T18:52:16.875Z,22.65
2019-05-28T18:54:49.053Z,22.66
2019-05-28T18:57:21.159Z,22.63
2019-05-28T18:59:53.309Z,22.61
2019-05-28T19:02:25.379Z,22.56
2019-05-28T19:04:57.729Z,22.53
2019-05-28T19:07:29.697Z,22.53
2019-05-28T19:10:02.065Z,22.50
2019-05-28T19:12:34.554Z,22.45
2019-05-28T19:15:11.262Z,22.44
2019-05-28T19:17:50.728Z,22.40
2019-05-28T19:20:22.663Z,22.37
2019-05-28T19:22:55.297Z,22.36
2019-05-28T19:25:27.307Z,22.34
2019-05-28T19:27:59.645Z,22.32
2019-05-28T19:30:33.889Z,22.27
2019-05-28T19:33:06.378Z,22.22
2019-05-28T19:35:38.622Z,22.22
2019-05-28T19:38:10.553Z,22.20
2019-05-28T19:40:44.300Z,22.17
2019-05-28T19:43:16.434Z,22.13
2019-05-28T19:45:48.438Z,22.09
2019-05-28T19:48:20.615Z,22.03
2019-05-28T19:50:52.853Z,22.00
2019-05-28T19:53:25.269Z,21.93
2019-05-28T19:55:57.318Z,21.88
2019-05-28T19:58:29.804Z,21.81
2019-05-28T20:01:02.118Z,21.68
2019-05-28T20:03:34.350Z,21.64
2019-05-28T20:06:06.460Z,21.55
2019-05-28T20:08:38.491Z,21.41
2019-05-28T20:11:10.709Z,21.46
2019-05-28T20:13:42.818Z,21.43
2019-05-28T20:16:14.818Z,21.39
2019-05-28T20:18:47.267Z,21.32
2019-05-28T20:21:19.493Z,21.34
2019-05-28T20:23:52.708Z,21.32
2019-05-28T20:26:24.668Z,21.27
2019-05-28T20:29:07.791Z,21.16
2019-05-28T20:31:30.476Z,21.17
2019-05-28T20:34:03.831Z,21.05
2019-05-28T20:36:37.147Z,21.08
2019-05-28T20:39:10.012Z,21.01
2019-05-28T20:41:42.244Z,21.04
2019-05-28T20:44:16.097Z,20.93
2019-05-28T20:46:48.101Z,20.92
2019-05-28T20:49:20.598Z,20.88
2019-05-28T20:51:52.603Z,20.77
2019-05-28T20:54:24.614Z,20.71
2019-05-28T20:56:57.932Z,20.68
2019-05-28T20:59:30.129Z,20.57
2019-05-28T21:02:02.189Z,20.56
2019-05-28T21:04:34.143Z,20.53
2019-05-28T21:07:06.283Z,20.49
2019-05-28T21:09:38.385Z,20.48
2019-05-28T21:12:10.562Z,20.45
2019-05-28T21:14:42.703Z,20.42
2019-05-28T21:17:14.867Z,20.43
2019-05-28T21:19:46.954Z,20.45
2019-05-28T21:22:26.789Z,20.45
2019-05-28T21:24:54.586Z,20.31
2019-05-28T21:27:26.550Z,20.28
2019-05-28T21:29:58.661Z,20.29
2019-05-28T21:32:32.380Z,20.30
2019-05-28T21:35:05.731Z,20.22
2019-05-28T21:37:37.159Z,20.18
2019-05-28T21:40:10.043Z,20.16
2019-05-28T21:42:42.015Z,20.13
2019-05-28T21:45:15.078Z,20.03
2019-05-28T21:47:47.182Z,20.00
2019-05-28T21:50:21.006Z,19.84
2019-05-28T21:52:53.230Z,19.88
2019-05-28T21:55:25.414Z,19.79
2019-05-28T21:57:57.792Z,19.70
2019-05-28T22:00:46.541Z,19.66
2019-05-28T22:03:20.101Z,19.58
2019-05-28T22:05:52.369Z,19.42
2019-05-28T22:08:24.626Z,19.39
2019-05-28T22:10:57.717Z,19.33
2019-05-28T22:13:30.016Z,19.29
2019-05-28T22:16:02.375Z,19.22
2019-05-28T22:18:34.466Z,19.24
2019-05-28T22:21:06.797Z,19.08
2019-05-28T22:23:39.087Z,19.13
2019-05-28T22:26:11.201Z,19.03
2019-05-28T22:28:43.361Z,18.97
2019-05-28T22:31:15.514Z,18.94
2019-05-28T22:33:47.755Z,18.83
2019-05-28T22:36:20.016Z,18.88
2019-05-28T22:38:53.750Z,18.87
2019-05-28T22:41:25.961Z,18.85
2019-05-28T22:43:58.593Z,18.84
2019-05-28T22:46:31.878Z,18.81
2019-05-28T22:49:05.348Z,18.79
2019-05-28T22:51:37.578Z,18.81
2019-05-28T22:54:09.799Z,18.81
2019-05-28T22:56:42.071Z,18.80
2019-05-28T22:59:14.277Z,18.73
2019-05-28T23:01:46.262Z,18.71
2019-05-28T23:04:18.509Z,18.63
2019-05-28T23:06:50.493Z,18.61
2019-05-28T23:09:23.766Z,18.55
2019-05-28T23:11:55.999Z,18.54
2019-05-28T23:14:28.210Z,18.50
2019-05-28T23:17:00.378Z,18.51
2019-05-28T23:19:32.427Z,18.46
2019-05-28T23:22:04.946Z,18.44
2019-05-28T23:24:37.249Z,18.35
2019-05-28T23:27:09.647Z,18.29
2019-05-28T23:29:41.883Z,18.29
2019-05-28T23:32:14.099Z,18.27
2019-05-28T23:34:46.016Z,18.28
2019-05-28T23:37:18.090Z,18.22
2019-05-28T23:39:50.321Z,18.25
2019-05-28T23:42:22.515Z,18.22
2019-05-28T23:44:54.798Z,18.21
2019-05-28T23:47:27.075Z,18.20
2019-05-28T23:49:59.119Z,18.14
2019-05-28T23:52:32.325Z,18.10
2019-05-28T23:55:05.795Z,18.08
2019-05-28T23:57:37.161Z,18.09
